createdAt,value
2023-12-16T00:02:59.615Z,14.57
2023-12-16T00:06:02.786Z,14.68
2023-12-16T00:09:06.034Z,15.50
2023-12-16T00:12:08.920Z,9.88
2023-12-16T00:15:12.250Z,14.07
2023-12-16T00:18:16.329Z,13.18
2023-12-16T00:21:19.026Z,14.70
2023-12-16T00:24:21.696Z,12.60
2023-12-16T00:27:24.321Z,12.30
2023-12-16T00:30:27.160Z,12.02
2023-12-16T00:33:31.804Z,17.27
2023-12-16T00:36:34.607Z,9.15
2023-12-16T00:39:37.235Z,13.35
2023-12-16T00:42:39.890Z,16.13
2023-12-16T00:45:42.564Z,13.35
2023-12-16T00:48:46.901Z,23.00
2023-12-16T00:51:49.633Z,15.95
2023-12-16T00:54:52.434Z,22.42
2023-12-16T00:57:55.215Z,18.25
2023-12-16T01:00:57.906Z,10.15
2023-12-16T01:04:02.052Z,16.00
2023-12-16T01:07:05.197Z,13.40
2023-12-16T01:10:08.933Z,15.07
2023-12-16T01:13:11.714Z,18.38
2023-12-16T01:16:14.583Z,19.45
2023-12-16T01:19:19.519Z,18.98
2023-12-16T01:22:22.316Z,17.35
2023-12-16T01:25:25.043Z,14.55
2023-12-16T01:28:27.797Z,12.32
2023-12-16T01:31:30.502Z,21.92
2023-12-16T01:34:34.540Z,10.80
2023-12-16T01:37:37.501Z,16.05
2023-12-16T01:40:40.353Z,16.83
2023-12-16T01:43:43.048Z,17.05
2023-12-16T01:46:45.847Z,22.48
2023-12-16T01:49:49.961Z,15.10
2023-12-16T01:52:52.629Z,18.27
2023-12-16T01:55:55.293Z,14.25
2023-12-16T01:58:57.970Z,21.27
2023-12-16T02:02:00.695Z,19.27
2023-12-16T02:05:05.038Z,15.30
2023-12-16T02:08:07.925Z,20.25
2023-12-16T02:11:11.426Z,17.60
2023-12-16T02:14:14.150Z,22.52
2023-12-16T02:17:16.816Z,19.30
2023-12-16T02:20:20.966Z,18.48
2023-12-16T02:23:24.998Z,18.80
2023-12-16T02:26:27.611Z,19.33
2023-12-16T02:29:30.257Z,21.17
2023-12-16T02:32:33.015Z,17.20
2023-12-16T02:35:35.783Z,20.17
2023-12-16T02:38:39.817Z,17.98
2023-12-16T02:41:42.416Z,19.92
2023-12-16T02:44:45.203Z,14.57
2023-12-16T02:47:48.028Z,14.95
2023-12-16T02:50:50.731Z,18.85
2023-12-16T02:53:54.874Z,21.88
2023-12-16T02:56:57.531Z,21.48
2023-12-16T03:00:00.307Z,16.20
2023-12-16T03:03:02.945Z,20.67
2023-12-16T03:06:06.497Z,24.38
2023-12-16T03:09:10.538Z,17.02
2023-12-16T03:12:13.280Z,15.65
2023-12-16T03:15:16.187Z,17.70
2023-12-16T03:18:18.936Z,18.25
2023-12-16T03:21:21.561Z,20.77
2023-12-16T03:24:25.618Z,17.13
2023-12-16T03:27:28.289Z,19.30
2023-12-16T03:30:30.973Z,28.00
2023-12-16T03:33:33.697Z,26.75
2023-12-16T03:36:36.393Z,17.70
2023-12-16T03:39:42.009Z,26.88
2023-12-16T03:42:44.697Z,26.90
2023-12-16T03:45:47.450Z,26.52
2023-12-16T03:48:51.050Z,23.77
2023-12-16T03:51:57.168Z,21.48
2023-12-16T03:55:01.268Z,20.77
2023-12-16T03:58:04.023Z,23.08
2023-12-16T04:01:09.395Z,19.83
2023-12-16T04:04:12.154Z,25.98
2023-12-16T04:07:14.861Z,23.30
2023-12-16T04:10:18.952Z,25.83
2023-12-16T04:13:21.644Z,31.67
2023-12-16T04:16:24.295Z,26.17
2023-12-16T04:19:27.049Z,21.77
2023-12-16T04:22:29.787Z,30.05
2023-12-16T04:25:33.814Z,28.67
2023-12-16T04:28:36.627Z,27.67
2023-12-16T04:31:39.946Z,17.45
2023-12-16T04:34:42.664Z,18.80
2023-12-16T04:37:45.275Z,21.30
2023-12-16T04:40:49.312Z,25.63
2023-12-16T04:43:54.252Z,19.50
2023-12-16T04:46:56.950Z,28.08
2023-12-16T04:49:59.795Z,26.10
2023-12-16T04:53:02.453Z,30.98
2023-12-16T04:56:07.531Z,25.50
2023-12-16T04:59:10.237Z,22.40
2023-12-16T05:02:12.970Z,31.77
2023-12-16T05:05:15.815Z,18.85
2023-12-16T05:08:20.554Z,27.52
2023-12-16T05:11:24.805Z,28.08
2023-12-16T05:14:27.489Z,22.05
2023-12-16T05:17:30.177Z,24.42
2023-12-16T05:20:32.800Z,33.53
2023-12-16T05:23:35.478Z,24.02
2023-12-16T05:26:39.509Z,25.52
2023-12-16T05:29:42.153Z,30.45
2023-12-16T05:32:44.897Z,25.80
2023-12-16T05:35:47.625Z,20.55
2023-12-16T05:38:50.352Z,29.50
2023-12-16T05:41:54.338Z,27.75
2023-12-16T05:44:56.995Z,35.85
2023-12-16T05:47:59.693Z,30.05
2023-12-16T05:51:02.374Z,29.48
2023-12-16T05:54:05.011Z,25.55
2023-12-16T05:57:09.115Z,25.85
2023-12-16T06:00:12.634Z,35.13
2023-12-16T06:03:15.569Z,29.10
2023-12-16T06:06:18.370Z,26.73
2023-12-16T06:09:21.052Z,26.35
2023-12-16T06:12:25.050Z,32.65
2023-12-16T06:15:27.658Z,35.30
2023-12-16T06:18:30.356Z,29.15
2023-12-16T06:21:32.984Z,29.30
2023-12-16T06:24:35.630Z,16.55
2023-12-16T06:27:41.909Z,39.08
2023-12-16T06:30:45.229Z,25.42
2023-12-16T06:33:48.099Z,22.85
2023-12-16T06:36:50.916Z,27.67
2023-12-16T06:39:53.640Z,29.63
2023-12-16T06:42:57.738Z,19.17
2023-12-16T06:46:01.315Z,31.90
2023-12-16T06:49:04.294Z,32.53
2023-12-16T06:52:07.369Z,23.02
2023-12-16T06:55:10.538Z,22.27
2023-12-16T06:58:14.637Z,30.65
2023-12-16T07:01:17.380Z,30.85
2023-12-16T07:04:20.076Z,21.90
2023-12-16T07:07:22.749Z,20.48
2023-12-16T07:10:25.479Z,27.83
2023-12-16T07:13:29.568Z,25.90
2023-12-16T07:16:32.946Z,28.67
2023-12-16T07:19:36.146Z,18.42
2023-12-16T07:22:39.202Z,21.83
2023-12-16T07:25:42.048Z,22.90
2023-12-16T07:28:46.180Z,23.10
2023-12-16T07:31:49.124Z,22.00
2023-12-16T07:34:51.941Z,23.38
2023-12-16T07:37:54.652Z,29.85
2023-12-16T07:40:57.869Z,24.25
2023-12-16T07:44:02.245Z,26.65
2023-12-16T07:47:05.345Z,28.10
2023-12-16T07:50:09.274Z,22.95
2023-12-16T07:53:11.955Z,17.63
2023-12-16T07:56:17.398Z,26.58
2023-12-16T07:59:21.387Z,23.00
2023-12-16T08:02:23.992Z,20.63
2023-12-16T08:05:27.409Z,30.13
2023-12-16T08:08:30.090Z,29.52
2023-12-16T08:11:34.108Z,24.27
2023-12-16T08:14:38.553Z,23.85
2023-12-16T08:17:41.513Z,21.15
2023-12-16T08:20:44.327Z,22.15
2023-12-16T08:23:46.965Z,28.77
2023-12-16T08:26:51.980Z,24.70
2023-12-16T08:29:56.357Z,15.75
2023-12-16T08:32:59.066Z,27.15
2023-12-16T08:36:01.710Z,22.42
2023-12-16T08:39:04.512Z,31.65
2023-12-16T08:42:07.175Z,23.63
2023-12-16T08:45:12.126Z,20.90
2023-12-16T08:48:14.881Z,32.00
2023-12-16T08:51:22.068Z,29.50
2023-12-16T08:54:24.682Z,21.23
2023-12-16T08:57:27.359Z,27.45
2023-12-16T09:00:31.407Z,27.95
2023-12-16T09:03:34.215Z,11.95
2023-12-16T09:06:40.216Z,25.23
2023-12-16T09:09:42.852Z,13.13
2023-12-16T09:12:45.546Z,16.52
2023-12-16T09:15:49.667Z,30.95
2023-12-16T09:18:52.389Z,26.60
2023-12-16T09:21:55.027Z,31.40
2023-12-16T09:24:57.749Z,23.92
2023-12-16T09:28:00.487Z,23.02
2023-12-16T09:31:05.084Z,17.67
2023-12-16T09:34:09.018Z,15.82
2023-12-16T09:37:11.782Z,27.48
2023-12-16T09:40:14.717Z,23.77
2023-12-16T09:43:18.472Z,21.45
2023-12-16T09:46:24.570Z,27.40
2023-12-16T09:49:27.945Z,25.42
2023-12-16T09:52:30.829Z,32.85
2023-12-16T09:55:33.605Z,31.77
2023-12-16T09:58:36.365Z,26.25
2023-12-16T10:01:40.423Z,17.38
2023-12-16T10:04:43.125Z,21.52
2023-12-16T10:07:45.815Z,22.02
2023-12-16T10:10:54.516Z,16.45
2023-12-16T10:14:02.363Z,23.88
2023-12-16T10:17:06.646Z,27.95
2023-12-16T10:20:10.541Z,29.92
2023-12-16T10:23:14.310Z,28.58
2023-12-16T10:26:17.158Z,23.25
2023-12-16T10:29:20.714Z,9.60
2023-12-16T10:32:24.819Z,24.58
2023-12-16T10:35:27.430Z,12.80
2023-12-16T10:38:30.032Z,26.70
2023-12-16T10:41:32.675Z,25.30
2023-12-16T10:44:35.345Z,23.48
2023-12-16T10:47:39.616Z,32.25
2023-12-16T10:50:44.837Z,25.58
2023-12-16T10:53:49.879Z,29.67
2023-12-16T10:56:56.043Z,24.70
2023-12-16T11:00:00.683Z,36.97
2023-12-16T11:03:06.450Z,26.95
2023-12-16T11:06:10.281Z,20.95
2023-12-16T11:09:13.432Z,34.22
2023-12-16T11:12:16.129Z,24.45
2023-12-16T11:15:18.783Z,21.08
2023-12-16T11:18:25.917Z,19.75
2023-12-16T11:21:28.622Z,12.93
2023-12-16T11:24:35.339Z,19.48
2023-12-16T11:27:38.347Z,16.63
2023-12-16T11:30:42.046Z,21.67
2023-12-16T11:33:46.387Z,16.50
2023-12-16T11:36:49.898Z,12.65
2023-12-16T11:39:52.539Z,17.58
2023-12-16T11:42:56.386Z,8.43
2023-12-16T11:45:59.109Z,17.30
2023-12-16T11:49:04.944Z,13.27
2023-12-16T11:52:07.849Z,21.05
2023-12-16T11:55:10.645Z,16.98
2023-12-16T11:58:13.570Z,14.25
2023-12-16T12:01:18.038Z,20.65
2023-12-16T12:04:22.176Z,26.10
2023-12-16T12:07:24.858Z,20.00
2023-12-16T12:10:27.586Z,19.70
2023-12-16T12:13:30.333Z,25.35
2023-12-16T12:16:33.149Z,18.40
2023-12-16T12:19:37.327Z,18.00
2023-12-16T12:22:40.261Z,22.88
2023-12-16T12:25:43.335Z,20.85
2023-12-16T12:28:59.442Z,13.40
2023-12-16T12:32:06.569Z,18.38
2023-12-16T12:35:12.455Z,11.30
2023-12-16T12:38:19.251Z,16.15
2023-12-16T12:41:21.883Z,11.77
2023-12-16T12:44:24.532Z,15.77
2023-12-16T12:47:30.436Z,13.73
2023-12-16T12:50:34.538Z,16.20
2023-12-16T12:53:37.685Z,21.92
2023-12-16T12:56:40.469Z,15.90
2023-12-16T12:59:59.779Z,15.20
2023-12-16T13:03:05.865Z,18.60
2023-12-16T13:06:10.410Z,15.43
2023-12-16T13:09:13.274Z,13.07
2023-12-16T13:12:16.012Z,13.55
2023-12-16T13:15:18.747Z,14.30
2023-12-16T13:18:22.373Z,10.07
2023-12-16T13:21:26.561Z,15.60
2023-12-16T13:24:31.733Z,14.63
2023-12-16T13:27:34.360Z,15.57
2023-12-16T13:30:37.073Z,15.13
2023-12-16T13:33:41.720Z,18.63
2023-12-16T13:36:50.477Z,12.52
2023-12-16T13:39:54.438Z,12.40
2023-12-16T13:42:57.136Z,15.27
2023-12-16T13:45:59.794Z,14.23
2023-12-16T13:49:04.260Z,11.57
2023-12-16T13:52:09.388Z,10.30
2023-12-16T13:55:12.014Z,9.63
2023-12-16T13:58:14.653Z,10.85
2023-12-16T14:01:19.190Z,12.50
2023-12-16T14:04:22.347Z,15.70
2023-12-16T14:07:26.354Z,8.35
2023-12-16T14:10:28.964Z,11.70
2023-12-16T14:13:31.619Z,11.93
2023-12-16T14:16:34.378Z,8.75
2023-12-16T14:19:38.045Z,11.88
2023-12-16T14:22:42.350Z,8.02
2023-12-16T14:25:45.013Z,6.90
2023-12-16T14:28:47.702Z,9.98
2023-12-16T14:31:50.870Z,7.78
2023-12-16T14:34:53.747Z,8.15
2023-12-16T14:37:57.924Z,8.07
2023-12-16T14:41:00.530Z,7.78
2023-12-16T14:44:03.140Z,14.15
2023-12-16T14:47:06.334Z,7.57
2023-12-16T14:50:09.654Z,9.43
2023-12-16T14:53:13.723Z,8.13
2023-12-16T14:56:19.601Z,7.72
2023-12-16T14:59:25.376Z,9.18
2023-12-16T15:02:28.027Z,7.80
2023-12-16T15:05:30.786Z,8.30
2023-12-16T15:08:36.524Z,6.82
2023-12-16T15:11:39.350Z,8.10
2023-12-16T15:14:42.030Z,6.05
2023-12-16T15:17:45.094Z,3.72
2023-12-16T15:20:48.199Z,7.45
2023-12-16T15:23:52.256Z,4.70
2023-12-16T15:26:54.989Z,6.32
2023-12-16T15:29:57.696Z,5.95
2023-12-16T15:33:00.786Z,5.30
2023-12-16T15:36:03.982Z,5.90
2023-12-16T15:39:12.265Z,10.05
2023-12-16T15:42:16.717Z,5.70
2023-12-16T15:45:19.576Z,3.85
2023-12-16T15:48:22.409Z,9.05
2023-12-16T15:51:25.843Z,6.65
2023-12-16T15:54:29.827Z,7.80
2023-12-16T15:57:32.469Z,8.63
2023-12-16T16:00:36.300Z,6.38
2023-12-16T16:03:39.118Z,9.18
2023-12-16T16:06:41.950Z,7.72
2023-12-16T16:09:46.075Z,6.93
2023-12-16T16:12:48.678Z,7.25
2023-12-16T16:15:51.748Z,7.25
2023-12-16T16:18:54.608Z,4.85
2023-12-16T16:21:57.279Z,5.30
2023-12-16T16:25:01.273Z,3.72
2023-12-16T16:28:05.351Z,6.50
2023-12-16T16:31:08.329Z,5.88
2023-12-16T16:34:11.373Z,4.68
2023-12-16T16:37:14.070Z,5.47
2023-12-16T16:40:18.299Z,7.95
2023-12-16T16:43:21.361Z,4.55
2023-12-16T16:46:24.524Z,8.57
2023-12-16T16:49:27.375Z,3.72
2023-12-16T16:52:30.079Z,4.65
2023-12-16T16:55:34.107Z,6.50
2023-12-16T16:58:37.408Z,5.15
2023-12-16T17:01:40.041Z,6.65
2023-12-16T17:04:42.759Z,8.43
2023-12-16T17:07:46.482Z,5.95
2023-12-16T17:10:50.637Z,7.50
2023-12-16T17:13:53.275Z,6.20
2023-12-16T17:16:56.804Z,7.97
2023-12-16T17:19:59.406Z,9.25
2023-12-16T17:23:02.054Z,13.45
2023-12-16T17:26:06.655Z,10.05
2023-12-16T17:29:09.295Z,12.38
2023-12-16T17:32:12.020Z,7.97
2023-12-16T17:35:14.715Z,8.55
2023-12-16T17:38:17.424Z,11.50
2023-12-16T17:41:21.427Z,7.95
2023-12-16T17:44:24.085Z,7.10
2023-12-16T17:47:26.932Z,8.40
2023-12-16T17:50:29.623Z,7.57
2023-12-16T17:53:32.285Z,4.88
2023-12-16T17:56:36.279Z,7.43
2023-12-16T17:59:38.996Z,5.47
2023-12-16T18:02:41.748Z,6.47
2023-12-16T18:05:44.425Z,7.03
2023-12-16T18:08:47.110Z,10.35
2023-12-16T18:11:51.193Z,7.63
2023-12-16T18:14:53.973Z,13.75
2023-12-16T18:17:56.796Z,7.13
2023-12-16T18:21:01.911Z,8.65
2023-12-16T18:24:05.706Z,11.63
2023-12-16T18:27:09.756Z,12.07
2023-12-16T18:30:13.178Z,9.10
2023-12-16T18:33:15.999Z,10.25
2023-12-16T18:36:18.880Z,9.50
2023-12-16T18:39:21.608Z,12.43
2023-12-16T18:42:25.745Z,5.22
2023-12-16T18:45:28.588Z,7.60
2023-12-16T18:48:31.420Z,11.48
2023-12-16T18:51:34.165Z,9.82
2023-12-16T18:54:37.513Z,11.40
2023-12-16T18:57:42.057Z,11.82
2023-12-16T19:00:46.672Z,15.38
2023-12-16T19:03:49.545Z,12.48
2023-12-16T19:06:52.302Z,5.47
2023-12-16T19:09:56.971Z,6.63
2023-12-16T19:13:00.979Z,12.27
2023-12-16T19:16:03.592Z,7.00
2023-12-16T19:19:06.307Z,10.90
2023-12-16T19:22:09.589Z,14.27
2023-12-16T19:25:12.615Z,11.57
2023-12-16T19:28:16.804Z,15.48
2023-12-16T19:31:19.459Z,11.23
2023-12-16T19:34:22.112Z,15.57
2023-12-16T19:37:24.789Z,15.50
2023-12-16T19:40:27.404Z,17.85
2023-12-16T19:43:31.379Z,13.52
2023-12-16T19:46:33.996Z,16.10
2023-12-16T19:49:37.287Z,12.88
2023-12-16T19:52:40.048Z,12.05
2023-12-16T19:55:42.701Z,13.07
2023-12-16T19:58:46.671Z,8.15
2023-12-16T20:01:49.898Z,16.50
2023-12-16T20:04:52.639Z,12.77
2023-12-16T20:07:55.239Z,14.88
2023-12-16T20:10:57.931Z,9.88
2023-12-16T20:14:01.967Z,8.77
2023-12-16T20:17:04.893Z,10.20
2023-12-16T20:20:10.336Z,10.98
2023-12-16T20:23:14.290Z,9.50
2023-12-16T20:26:16.940Z,9.35
2023-12-16T20:29:20.980Z,14.32
2023-12-16T20:32:23.624Z,16.90
2023-12-16T20:35:26.296Z,13.38
2023-12-16T20:38:46.341Z,11.13
2023-12-16T20:41:49.011Z,15.48
2023-12-16T20:44:53.047Z,14.93
2023-12-16T20:47:56.908Z,10.60
2023-12-16T20:50:59.728Z,10.48
2023-12-16T20:54:02.372Z,10.48
2023-12-16T20:57:05.163Z,13.00
2023-12-16T21:00:10.299Z,14.68
2023-12-16T21:03:13.178Z,17.52
2023-12-16T21:06:15.972Z,11.05
2023-12-16T21:09:18.677Z,8.63
2023-12-16T21:12:22.336Z,12.43
2023-12-16T21:15:26.470Z,9.80
2023-12-16T21:18:29.240Z,9.50
2023-12-16T21:21:31.896Z,16.15
2023-12-16T21:24:38.993Z,10.70
2023-12-16T21:27:42.007Z,18.85
2023-12-16T21:30:46.447Z,11.25
2023-12-16T21:33:49.671Z,13.93
2023-12-16T21:36:53.046Z,19.08
2023-12-16T21:39:55.768Z,11.65
2023-12-16T21:43:00.590Z,10.32
2023-12-16T21:46:04.876Z,11.55
2023-12-16T21:49:07.755Z,13.45
2023-12-16T21:52:10.497Z,13.00
2023-12-16T21:55:13.154Z,9.95
2023-12-16T21:58:15.831Z,15.45
2023-12-16T22:01:21.620Z,14.25
2023-12-16T22:04:24.327Z,8.00
2023-12-16T22:07:27.290Z,12.90
2023-12-16T22:10:30.088Z,18.33
2023-12-16T22:13:32.805Z,14.65
2023-12-16T22:16:36.815Z,14.93
2023-12-16T22:19:41.274Z,14.20
2023-12-16T22:22:44.083Z,11.35
2023-12-16T22:25:46.737Z,9.60
2023-12-16T22:28:49.412Z,11.43
2023-12-16T22:31:54.402Z,6.65
2023-12-16T22:34:57.916Z,9.60
2023-12-16T22:38:00.530Z,9.45
2023-12-16T22:41:03.208Z,13.05
2023-12-16T22:44:05.844Z,12.27
2023-12-16T22:47:09.874Z,11.10
2023-12-16T22:50:12.689Z,13.07
2023-12-16T22:53:15.470Z,15.63
2023-12-16T22:56:18.712Z,9.20
2023-12-16T22:59:21.376Z,8.18
2023-12-16T23:02:27.135Z,10.18
2023-12-16T23:05:30.664Z,9.57
2023-12-16T23:08:33.319Z,11.13
2023-12-16T23:11:36.022Z,9.32
2023-12-16T23:14:38.763Z,8.85
2023-12-16T23:17:43.043Z,10.65
2023-12-16T23:20:45.911Z,8.40
2023-12-16T23:23:48.592Z,7.40
2023-12-16T23:26:51.268Z,6.18
2023-12-16T23:29:53.928Z,3.65
2023-12-16T23:32:58.090Z,5.03
2023-12-16T23:36:00.877Z,7.18
2023-12-16T23:39:03.683Z,7.35
2023-12-16T23:42:06.593Z,6.90
2023-12-16T23:45:09.973Z,5.93
2023-12-16T23:48:14.233Z,9.35
2023-12-16T23:51:17.225Z,6.60
2023-12-16T23:54:20.065Z,10.25
2023-12-16T23:57:22.860Z,10.43
